sensor_id;sensor_type;location;lat;lon;timestamp;temperature;humidity
40077;DHT22;25777;47.824;18.982;2023-11-21T00:00:19;4.50;99.90
40077;DHT22;25777;47.824;18.982;2023-11-21T00:02:46;4.30;99.90
40077;DHT22;25777;47.824;18.982;2023-11-21T00:05:13;4.10;99.90
40077;DHT22;25777;47.824;18.982;2023-11-21T00:07:42;4.20;99.90
40077;DHT22;25777;47.824;18.982;2023-11-21T00:10:09;4.20;99.90
40077;DHT22;25777;47.824;18.982;2023-11-21T00:12:36;4.30;99.90
40077;DHT22;25777;47.824;18.982;2023-11-21T00:15:03;4.30;99.90
40077;DHT22;25777;47.824;18.982;2023-11-21T00:17:30;4.20;99.90
40077;DHT22;25777;47.824;18.982;2023-11-21T00:19:56;4.20;99.90
40077;DHT22;25777;47.824;18.982;2023-11-21T00:22:22;4.00;99.90
40077;DHT22;25777;47.824;18.982;2023-11-21T00:24:48;4.00;99.90
40077;DHT22;25777;47.824;18.982;2023-11-21T00:27:14;3.90;99.90
40077;DHT22;25777;47.824;18.982;2023-11-21T00:29:40;4.00;99.90
40077;DHT22;25777;47.824;18.982;2023-11-21T00:32:06;4.00;99.90
40077;DHT22;25777;47.824;18.982;2023-11-21T00:34:32;4.00;99.90
40077;DHT22;25777;47.824;18.982;2023-11-21T00:36:58;4.00;99.90
40077;DHT22;25777;47.824;18.982;2023-11-21T00:39:24;4.10;99.90
40077;DHT22;25777;47.824;18.982;2023-11-21T00:41:52;4.10;99.90
40077;DHT22;25777;47.824;18.982;2023-11-21T00:44:18;4.20;99.90
40077;DHT22;25777;47.824;18.982;2023-11-21T00:46:44;4.20;99.90
40077;DHT22;25777;47.824;18.982;2023-11-21T00:49:09;4.30;99.90
40077;DHT22;25777;47.824;18.982;2023-11-21T00:51:35;4.40;99.90
40077;DHT22;25777;47.824;18.982;2023-11-21T00:54:02;4.40;99.90
40077;DHT22;25777;47.824;18.982;2023-11-21T00:56:28;4.50;99.90
40077;DHT22;25777;47.824;18.982;2023-11-21T00:58:54;4.50;99.90
40077;DHT22;25777;47.824;18.982;2023-11-21T01:01:20;4.60;99.90
40077;DHT22;25777;47.824;18.982;2023-11-21T01:03:49;4.60;99.90
40077;DHT22;25777;47.824;18.982;2023-11-21T01:06:17;4.60;99.90
40077;DHT22;25777;47.824;18.982;2023-11-21T01:08:44;4.60;99.90
40077;DHT22;25777;47.824;18.982;2023-11-21T01:11:10;4.60;99.90
40077;DHT22;25777;47.824;18.982;2023-11-21T01:13:40;4.60;99.90
40077;DHT22;25777;47.824;18.982;2023-11-21T01:16:07;4.60;99.90
40077;DHT22;25777;47.824;18.982;2023-11-21T01:18:34;4.60;99.90
40077;DHT22;25777;47.824;18.982;2023-11-21T01:21:00;4.50;99.90
40077;DHT22;25777;47.824;18.982;2023-11-21T01:23:26;4.40;99.90
40077;DHT22;25777;47.824;18.982;2023-11-21T01:25:54;4.40;99.90
40077;DHT22;25777;47.824;18.982;2023-11-21T01:28:20;4.30;99.90
40077;DHT22;25777;47.824;18.982;2023-11-21T01:30:46;4.30;99.90
40077;DHT22;25777;47.824;18.982;2023-11-21T01:33:12;4.30;99.90
40077;DHT22;25777;47.824;18.982;2023-11-21T01:35:38;4.40;99.90
40077;DHT22;25777;47.824;18.982;2023-11-21T01:38:04;4.40;99.90
40077;DHT22;25777;47.824;18.982;2023-11-21T01:40:30;4.30;99.90
40077;DHT22;25777;47.824;18.982;2023-11-21T01:42:56;4.30;99.90
40077;DHT22;25777;47.824;18.982;2023-11-21T01:45:23;4.30;99.90
40077;DHT22;25777;47.824;18.982;2023-11-21T01:47:50;4.20;99.90
40077;DHT22;25777;47.824;18.982;2023-11-21T01:50:17;4.20;99.90
40077;DHT22;25777;47.824;18.982;2023-11-21T01:52:45;4.00;99.90
40077;DHT22;25777;47.824;18.982;2023-11-21T01:55:11;4.00;99.90
40077;DHT22;25777;47.824;18.982;2023-11-21T01:57:40;3.80;99.90
40077;DHT22;25777;47.824;18.982;2023-11-21T02:00:07;3.70;99.90
40077;DHT22;25777;47.824;18.982;2023-11-21T02:02:43;3.80;99.90
40077;DHT22;25777;47.824;18.982;2023-11-21T02:05:10;3.70;99.90
40077;DHT22;25777;47.824;18.982;2023-11-21T02:07:41;3.70;99.90
40077;DHT22;25777;47.824;18.982;2023-11-21T02:10:08;3.70;99.90
40077;DHT22;25777;47.824;18.982;2023-11-21T02:12:34;3.70;99.90
40077;DHT22;25777;47.824;18.982;2023-11-21T02:15:04;3.70;99.90
40077;DHT22;25777;47.824;18.982;2023-11-21T02:17:35;3.60;99.90
40077;DHT22;25777;47.824;18.982;2023-11-21T02:20:02;3.60;99.90
40077;DHT22;25777;47.824;18.982;2023-11-21T02:22:31;3.80;99.90
40077;DHT22;25777;47.824;18.982;2023-11-21T02:24:58;3.80;99.90
40077;DHT22;25777;47.824;18.982;2023-11-21T02:27:24;3.70;99.90
40077;DHT22;25777;47.824;18.982;2023-11-21T02:29:50;3.60;99.90
40077;DHT22;25777;47.824;18.982;2023-11-21T02:32:16;3.60;99.90
40077;DHT22;25777;47.824;18.982;2023-11-21T02:34:48;3.70;99.90
40077;DHT22;25777;47.824;18.982;2023-11-21T02:37:14;3.60;99.90
40077;DHT22;25777;47.824;18.982;2023-11-21T02:39:40;3.60;99.90
40077;DHT22;25777;47.824;18.982;2023-11-21T02:42:05;3.60;99.90
40077;DHT22;25777;47.824;18.982;2023-11-21T02:44:31;3.60;99.90
40077;DHT22;25777;47.824;18.982;2023-11-21T02:46:57;3.50;99.90
40077;DHT22;25777;47.824;18.982;2023-11-21T02:49:23;3.40;99.90
40077;DHT22;25777;47.824;18.982;2023-11-21T02:51:49;3.50;99.90
40077;DHT22;25777;47.824;18.982;2023-11-21T02:54:15;3.60;99.90
40077;DHT22;25777;47.824;18.982;2023-11-21T02:56:42;3.50;99.90
40077;DHT22;25777;47.824;18.982;2023-11-21T02:59:08;3.40;99.90
40077;DHT22;25777;47.824;18.982;2023-11-21T03:01:34;3.50;99.90
40077;DHT22;25777;47.824;18.982;2023-11-21T03:04:00;3.50;99.90
40077;DHT22;25777;47.824;18.982;2023-11-21T03:06:27;3.60;99.90
40077;DHT22;25777;47.824;18.982;2023-11-21T03:08:53;3.60;99.90
40077;DHT22;25777;47.824;18.982;2023-11-21T03:11:19;4.00;99.90
40077;DHT22;25777;47.824;18.982;2023-11-21T03:13:44;3.60;99.90
40077;DHT22;25777;47.824;18.982;2023-11-21T03:16:11;3.70;99.90
40077;DHT22;25777;47.824;18.982;2023-11-21T03:18:40;3.50;99.90
40077;DHT22;25777;47.824;18.982;2023-11-21T03:21:08;3.50;99.90
40077;DHT22;25777;47.824;18.982;2023-11-21T03:23:35;3.60;99.90
40077;DHT22;25777;47.824;18.982;2023-11-21T03:26:01;3.50;99.90
40077;DHT22;25777;47.824;18.982;2023-11-21T03:28:27;3.40;99.90
40077;DHT22;25777;47.824;18.982;2023-11-21T03:30:53;3.40;99.90
40077;DHT22;25777;47.824;18.982;2023-11-21T03:33:20;3.30;99.90
40077;DHT22;25777;47.824;18.982;2023-11-21T03:35:45;3.30;99.90
40077;DHT22;25777;47.824;18.982;2023-11-21T03:38:11;3.20;99.90
40077;DHT22;25777;47.824;18.982;2023-11-21T03:40:38;3.20;99.90
40077;DHT22;25777;47.824;18.982;2023-11-21T03:43:05;3.20;99.90
40077;DHT22;25777;47.824;18.982;2023-11-21T03:45:32;3.20;99.90
40077;DHT22;25777;47.824;18.982;2023-11-21T03:47:57;3.20;99.90
40077;DHT22;25777;47.824;18.982;2023-11-21T03:50:23;3.30;99.90
40077;DHT22;25777;47.824;18.982;2023-11-21T03:52:49;3.30;99.90
40077;DHT22;25777;47.824;18.982;2023-11-21T03:55:15;3.30;99.90
40077;DHT22;25777;47.824;18.982;2023-11-21T03:57:41;3.30;99.90
40077;DHT22;25777;47.824;18.982;2023-11-21T04:00:07;3.50;99.90
40077;DHT22;25777;47.824;18.982;2023-11-21T04:02:36;3.50;99.90
40077;DHT22;25777;47.824;18.982;2023-11-21T04:05:02;3.60;99.90
40077;DHT22;25777;47.824;18.982;2023-11-21T04:07:28;3.60;99.90
40077;DHT22;25777;47.824;18.982;2023-11-21T04:09:54;3.70;99.90
40077;DHT22;25777;47.824;18.982;2023-11-21T04:12:20;3.60;99.90
40077;DHT22;25777;47.824;18.982;2023-11-21T04:14:46;3.60;99.90
40077;DHT22;25777;47.824;18.982;2023-11-21T04:17:12;3.60;99.90
40077;DHT22;25777;47.824;18.982;2023-11-21T04:19:37;3.60;99.90
40077;DHT22;25777;47.824;18.982;2023-11-21T04:22:03;3.70;99.90
40077;DHT22;25777;47.824;18.982;2023-11-21T04:24:35;3.80;99.90
40077;DHT22;25777;47.824;18.982;2023-11-21T04:27:01;3.70;99.90
40077;DHT22;25777;47.824;18.982;2023-11-21T04:29:28;3.80;99.90
40077;DHT22;25777;47.824;18.982;2023-11-21T04:31:54;3.90;99.90
40077;DHT22;25777;47.824;18.982;2023-11-21T04:34:20;3.90;99.90
40077;DHT22;25777;47.824;18.982;2023-11-21T04:36:46;3.90;99.90
40077;DHT22;25777;47.824;18.982;2023-11-21T04:39:11;3.90;99.90
40077;DHT22;25777;47.824;18.982;2023-11-21T04:41:37;3.90;99.90
40077;DHT22;25777;47.824;18.982;2023-11-21T04:44:06;3.90;99.90
40077;DHT22;25777;47.824;18.982;2023-11-21T04:46:32;3.70;99.90
40077;DHT22;25777;47.824;18.982;2023-11-21T04:48:58;3.70;99.90
40077;DHT22;25777;47.824;18.982;2023-11-21T04:51:24;3.70;99.90
40077;DHT22;25777;47.824;18.982;2023-11-21T04:53:50;3.80;99.90
40077;DHT22;25777;47.824;18.982;2023-11-21T04:56:16;3.90;99.90
40077;DHT22;25777;47.824;18.982;2023-11-21T04:58:41;3.90;99.90
40077;DHT22;25777;47.824;18.982;2023-11-21T05:01:08;3.90;99.90
40077;DHT22;25777;47.824;18.982;2023-11-21T05:03:34;3.90;99.90
40077;DHT22;25777;47.824;18.982;2023-11-21T05:06:00;3.80;99.90
40077;DHT22;25777;47.824;18.982;2023-11-21T05:08:26;3.80;99.90
40077;DHT22;25777;47.824;18.982;2023-11-21T05:10:52;3.80;99.90
40077;DHT22;25777;47.824;18.982;2023-11-21T05:13:20;3.90;99.90
40077;DHT22;25777;47.824;18.982;2023-11-21T05:15:45;3.90;99.90
40077;DHT22;25777;47.824;18.982;2023-11-21T05:18:11;4.00;99.90
40077;DHT22;25777;47.824;18.982;2023-11-21T05:20:39;4.00;99.90
40077;DHT22;25777;47.824;18.982;2023-11-21T05:23:07;4.00;99.90
40077;DHT22;25777;47.824;18.982;2023-11-21T05:25:33;4.00;99.90
40077;DHT22;25777;47.824;18.982;2023-11-21T05:28:00;4.10;99.90
40077;DHT22;25777;47.824;18.982;2023-11-21T05:30:27;4.00;99.90
40077;DHT22;25777;47.824;18.982;2023-11-21T05:32:53;4.10;99.90
40077;DHT22;25777;47.824;18.982;2023-11-21T05:35:19;4.10;99.90
40077;DHT22;25777;47.824;18.982;2023-11-21T05:37:45;4.10;99.90
40077;DHT22;25777;47.824;18.982;2023-11-21T05:40:11;4.20;99.90
40077;DHT22;25777;47.824;18.982;2023-11-21T05:42:39;4.20;99.90
40077;DHT22;25777;47.824;18.982;2023-11-21T05:45:06;4.20;99.90
40077;DHT22;25777;47.824;18.982;2023-11-21T05:47:37;4.30;99.90
40077;DHT22;25777;47.824;18.982;2023-11-21T05:50:05;4.30;99.90
40077;DHT22;25777;47.824;18.982;2023-11-21T05:52:31;4.30;99.90
40077;DHT22;25777;47.824;18.982;2023-11-21T05:54:58;4.30;99.90
40077;DHT22;25777;47.824;18.982;2023-11-21T05:57:24;4.30;99.90
40077;DHT22;25777;47.824;18.982;2023-11-21T05:59:49;4.40;99.90
40077;DHT22;25777;47.824;18.982;2023-11-21T06:02:15;4.40;99.90
40077;DHT22;25777;47.824;18.982;2023-11-21T06:04:41;4.40;99.90
40077;DHT22;25777;47.824;18.982;2023-11-21T06:07:07;4.40;99.90
40077;DHT22;25777;47.824;18.982;2023-11-21T06:09:33;4.40;99.90
40077;DHT22;25777;47.824;18.982;2023-11-21T06:12:00;4.40;99.90
40077;DHT22;25777;47.824;18.982;2023-11-21T06:14:25;4.40;99.90
40077;DHT22;25777;47.824;18.982;2023-11-21T06:16:51;4.30;99.90
40077;DHT22;25777;47.824;18.982;2023-11-21T06:19:18;4.30;99.90
40077;DHT22;25777;47.824;18.982;2023-11-21T06:21:46;4.30;99.90
40077;DHT22;25777;47.824;18.982;2023-11-21T06:24:13;4.40;99.90
40077;DHT22;25777;47.824;18.982;2023-11-21T06:26:40;4.40;99.90
40077;DHT22;25777;47.824;18.982;2023-11-21T06:29:06;4.40;99.90
40077;DHT22;25777;47.824;18.982;2023-11-21T06:31:32;4.40;99.90
40077;DHT22;25777;47.824;18.982;2023-11-21T06:33:58;4.50;99.90
40077;DHT22;25777;47.824;18.982;2023-11-21T06:36:25;4.50;99.90
40077;DHT22;25777;47.824;18.982;2023-11-21T06:38:52;4.50;99.90
40077;DHT22;25777;47.824;18.982;2023-11-21T06:41:18;4.50;99.90
40077;DHT22;25777;47.824;18.982;2023-11-21T06:43:43;4.50;99.90
40077;DHT22;25777;47.824;18.982;2023-11-21T06:46:12;4.60;99.90
40077;DHT22;25777;47.824;18.982;2023-11-21T06:48:42;4.60;99.90
40077;DHT22;25777;47.824;18.982;2023-11-21T06:51:08;4.60;99.90
40077;DHT22;25777;47.824;18.982;2023-11-21T06:53:36;4.70;99.90
40077;DHT22;25777;47.824;18.982;2023-11-21T06:56:02;4.70;99.90
40077;DHT22;25777;47.824;18.982;2023-11-21T06:58:28;4.70;99.90
40077;DHT22;25777;47.824;18.982;2023-11-21T07:00:54;4.80;99.90
40077;DHT22;25777;47.824;18.982;2023-11-21T07:03:20;4.80;99.90
40077;DHT22;25777;47.824;18.982;2023-11-21T07:05:46;4.90;99.90
40077;DHT22;25777;47.824;18.982;2023-11-21T07:08:11;4.90;99.90
40077;DHT22;25777;47.824;18.982;2023-11-21T07:10:38;4.90;99.90
40077;DHT22;25777;47.824;18.982;2023-11-21T07:13:04;5.00;99.90
40077;DHT22;25777;47.824;18.982;2023-11-21T07:15:30;5.00;99.90
40077;DHT22;25777;47.824;18.982;2023-11-21T07:17:56;5.00;99.90
40077;DHT22;25777;47.824;18.982;2023-11-21T07:20:21;5.10;99.90
40077;DHT22;25777;47.824;18.982;2023-11-21T07:22:47;5.10;99.90
40077;DHT22;25777;47.824;18.982;2023-11-21T07:25:13;5.10;99.90
40077;DHT22;25777;47.824;18.982;2023-11-21T07:27:39;5.20;99.90
40077;DHT22;25777;47.824;18.982;2023-11-21T07:30:05;5.20;99.90
40077;DHT22;25777;47.824;18.982;2023-11-21T07:32:33;5.20;99.90
40077;DHT22;25777;47.824;18.982;2023-11-21T07:34:59;5.20;99.90
40077;DHT22;25777;47.824;18.982;2023-11-21T07:37:27;5.30;99.90
40077;DHT22;25777;47.824;18.982;2023-11-21T07:39:56;5.30;99.90
40077;DHT22;25777;47.824;18.982;2023-11-21T07:42:23;5.40;99.90
40077;DHT22;25777;47.824;18.982;2023-11-21T07:44:52;5.40;99.90
40077;DHT22;25777;47.824;18.982;2023-11-21T07:47:18;5.50;99.90
40077;DHT22;25777;47.824;18.982;2023-11-21T07:49:43;5.50;99.90
40077;DHT22;25777;47.824;18.982;2023-11-21T07:52:10;5.60;99.90
40077;DHT22;25777;47.824;18.982;2023-11-21T07:54:36;5.70;99.90
40077;DHT22;25777;47.824;18.982;2023-11-21T07:57:03;5.80;99.90
40077;DHT22;25777;47.824;18.982;2023-11-21T07:59:30;5.80;99.90
40077;DHT22;25777;47.824;18.982;2023-11-21T08:01:56;5.90;99.90
40077;DHT22;25777;47.824;18.982;2023-11-21T08:04:22;5.90;99.90
40077;DHT22;25777;47.824;18.982;2023-11-21T08:06:47;6.00;99.90
40077;DHT22;25777;47.824;18.982;2023-11-21T08:09:14;6.00;99.90
40077;DHT22;25777;47.824;18.982;2023-11-21T08:11:42;6.00;99.90
40077;DHT22;25777;47.824;18.982;2023-11-21T08:14:08;6.10;99.90
40077;DHT22;25777;47.824;18.982;2023-11-21T08:16:34;6.00;99.90
40077;DHT22;25777;47.824;18.982;2023-11-21T08:19:00;6.10;99.90
40077;DHT22;25777;47.824;18.982;2023-11-21T08:21:26;6.10;99.90
40077;DHT22;25777;47.824;18.982;2023-11-21T08:23:52;6.20;99.90
40077;DHT22;25777;47.824;18.982;2023-11-21T08:26:20;6.20;99.90
40077;DHT22;25777;47.824;18.982;2023-11-21T08:28:46;6.20;99.90
40077;DHT22;25777;47.824;18.982;2023-11-21T08:31:13;6.30;99.90
40077;DHT22;25777;47.824;18.982;2023-11-21T08:33:39;6.30;99.90
40077;DHT22;25777;47.824;18.982;2023-11-21T08:36:09;6.30;99.90
40077;DHT22;25777;47.824;18.982;2023-11-21T08:38:36;6.30;99.90
40077;DHT22;25777;47.824;18.982;2023-11-21T08:41:07;6.40;99.90
40077;DHT22;25777;47.824;18.982;2023-11-21T08:43:36;6.40;99.90
40077;DHT22;25777;47.824;18.982;2023-11-21T08:46:08;6.40;99.90
40077;DHT22;25777;47.824;18.982;2023-11-21T08:48:36;6.50;99.90
40077;DHT22;25777;47.824;18.982;2023-11-21T08:51:03;6.50;99.90
40077;DHT22;25777;47.824;18.982;2023-11-21T08:53:29;6.50;99.90
40077;DHT22;25777;47.824;18.982;2023-11-21T08:55:56;6.60;99.90
40077;DHT22;25777;47.824;18.982;2023-11-21T08:58:22;6.60;99.90
40077;DHT22;25777;47.824;18.982;2023-11-21T09:00:48;6.60;99.90
40077;DHT22;25777;47.824;18.982;2023-11-21T09:03:14;6.60;99.90
40077;DHT22;25777;47.824;18.982;2023-11-21T09:05:40;6.70;99.90
40077;DHT22;25777;47.824;18.982;2023-11-21T09:08:06;6.80;99.90
40077;DHT22;25777;47.824;18.982;2023-11-21T09:10:35;6.90;99.90
40077;DHT22;25777;47.824;18.982;2023-11-21T09:13:05;6.90;99.90
40077;DHT22;25777;47.824;18.982;2023-11-21T09:15:31;6.90;99.90
40077;DHT22;25777;47.824;18.982;2023-11-21T09:17:57;6.90;99.90
40077;DHT22;25777;47.824;18.982;2023-11-21T09:20:22;7.00;99.90
40077;DHT22;25777;47.824;18.982;2023-11-21T09:22:49;7.00;99.90
40077;DHT22;25777;47.824;18.982;2023-11-21T09:25:15;7.10;99.90
40077;DHT22;25777;47.824;18.982;2023-11-21T09:27:41;7.20;99.90
40077;DHT22;25777;47.824;18.982;2023-11-21T09:30:07;7.20;99.90
40077;DHT22;25777;47.824;18.982;2023-11-21T09:32:37;7.20;99.90
40077;DHT22;25777;47.824;18.982;2023-11-21T09:35:04;7.20;99.90
40077;DHT22;25777;47.824;18.982;2023-11-21T09:37:31;7.20;99.90
40077;DHT22;25777;47.824;18.982;2023-11-21T09:39:58;7.20;99.90
40077;DHT22;25777;47.824;18.982;2023-11-21T09:42:43;7.20;99.90
40077;DHT22;25777;47.824;18.982;2023-11-21T09:45:21;7.30;99.90
40077;DHT22;25777;47.824;18.982;2023-11-21T09:47:49;7.30;99.90
40077;DHT22;25777;47.824;18.982;2023-11-21T09:50:17;7.30;99.90
40077;DHT22;25777;47.824;18.982;2023-11-21T09:55:47;7.40;99.90
40077;DHT22;25777;47.824;18.982;2023-11-21T09:58:14;7.40;99.90
40077;DHT22;25777;47.824;18.982;2023-11-21T10:00:41;7.50;99.90
40077;DHT22;25777;47.824;18.982;2023-11-21T10:03:08;7.50;99.90
40077;DHT22;25777;47.824;18.982;2023-11-21T10:05:35;7.60;99.90
40077;DHT22;25777;47.824;18.982;2023-11-21T10:08:01;7.60;99.90
40077;DHT22;25777;47.824;18.982;2023-11-21T10:10:32;7.70;99.90
40077;DHT22;25777;47.824;18.982;2023-11-21T10:13:02;7.80;99.90
40077;DHT22;25777;47.824;18.982;2023-11-21T10:15:31;7.80;99.90
40077;DHT22;25777;47.824;18.982;2023-11-21T10:18:06;7.90;99.90
40077;DHT22;25777;47.824;18.982;2023-11-21T10:20:33;8.00;99.90
40077;DHT22;25777;47.824;18.982;2023-11-21T10:23:05;8.00;99.90
40077;DHT22;25777;47.824;18.982;2023-11-21T10:25:33;8.10;99.90
40077;DHT22;25777;47.824;18.982;2023-11-21T10:28:01;8.10;99.90
40077;DHT22;25777;47.824;18.982;2023-11-21T10:30:34;8.10;99.90
40077;DHT22;25777;47.824;18.982;2023-11-21T10:33:04;8.20;99.90
40077;DHT22;25777;47.824;18.982;2023-11-21T10:35:46;8.20;99.90
40077;DHT22;25777;47.824;18.982;2023-11-21T10:38:21;8.20;99.90
40077;DHT22;25777;47.824;18.982;2023-11-21T10:40:50;8.30;99.90
40077;DHT22;25777;47.824;18.982;2023-11-21T10:43:16;8.30;99.90
40077;DHT22;25777;47.824;18.982;2023-11-21T10:45:43;8.30;99.90
40077;DHT22;25777;47.824;18.982;2023-11-21T10:48:12;8.40;99.90
40077;DHT22;25777;47.824;18.982;2023-11-21T10:50:41;8.40;99.90
40077;DHT22;25777;47.824;18.982;2023-11-21T10:53:07;8.50;99.90
40077;DHT22;25777;47.824;18.982;2023-11-21T10:55:39;8.60;99.90
40077;DHT22;25777;47.824;18.982;2023-11-21T10:58:06;8.60;99.90
40077;DHT22;25777;47.824;18.982;2023-11-21T11:00:33;8.70;99.90
40077;DHT22;25777;47.824;18.982;2023-11-21T11:02:59;8.70;99.90
40077;DHT22;25777;47.824;18.982;2023-11-21T11:05:27;8.70;99.90
40077;DHT22;25777;47.824;18.982;2023-11-21T11:08:08;8.70;99.90
40077;DHT22;25777;47.824;18.982;2023-11-21T11:10:37;8.80;99.90
40077;DHT22;25777;47.824;18.982;2023-11-21T11:13:04;8.80;99.90
40077;DHT22;25777;47.824;18.982;2023-11-21T11:15:32;8.80;99.90
40077;DHT22;25777;47.824;18.982;2023-11-21T11:17:59;8.80;99.90
40077;DHT22;25777;47.824;18.982;2023-11-21T11:20:36;8.80;99.90
40077;DHT22;25777;47.824;18.982;2023-11-21T11:25:58;8.90;99.90
40077;DHT22;25777;47.824;18.982;2023-11-21T11:28:47;8.90;99.90
40077;DHT22;25777;47.824;18.982;2023-11-21T11:36:36;9.00;99.90
40077;DHT22;25777;47.824;18.982;2023-11-21T11:39:04;9.10;99.90
40077;DHT22;25777;47.824;18.982;2023-11-21T11:41:50;9.00;99.90
40077;DHT22;25777;47.824;18.982;2023-11-21T11:47:30;9.10;99.90
40077;DHT22;25777;47.824;18.982;2023-11-21T11:50:10;9.10;99.90
40077;DHT22;25777;47.824;18.982;2023-11-21T11:55:10;9.20;99.90
40077;DHT22;25777;47.824;18.982;2023-11-21T11:57:37;9.20;99.90
40077;DHT22;25777;47.824;18.982;2023-11-21T12:00:12;9.20;99.90
40077;DHT22;25777;47.824;18.982;2023-11-21T12:02:44;9.20;99.90
40077;DHT22;25777;47.824;18.982;2023-11-21T12:05:11;9.20;99.90
40077;DHT22;25777;47.824;18.982;2023-11-21T12:07:59;9.10;99.90
40077;DHT22;25777;47.824;18.982;2023-11-21T12:10:30;9.10;99.90
40077;DHT22;25777;47.824;18.982;2023-11-21T12:13:07;9.10;99.90
40077;DHT22;25777;47.824;18.982;2023-11-21T12:15:34;9.10;99.90
40077;DHT22;25777;47.824;18.982;2023-11-21T12:18:00;9.10;99.90
40077;DHT22;25777;47.824;18.982;2023-11-21T12:20:27;9.10;99.90
40077;DHT22;25777;47.824;18.982;2023-11-21T12:22:58;9.00;99.90
40077;DHT22;25777;47.824;18.982;2023-11-21T12:25:28;9.00;99.90
40077;DHT22;25777;47.824;18.982;2023-11-21T12:27:55;9.00;99.90
40077;DHT22;25777;47.824;18.982;2023-11-21T12:30:24;9.00;99.90
40077;DHT22;25777;47.824;18.982;2023-11-21T12:32:55;9.00;99.90
40077;DHT22;25777;47.824;18.982;2023-11-21T12:35:31;9.10;99.90
40077;DHT22;25777;47.824;18.982;2023-11-21T12:38:00;9.00;99.90
40077;DHT22;25777;47.824;18.982;2023-11-21T12:40:28;9.00;99.90
40077;DHT22;25777;47.824;18.982;2023-11-21T12:42:58;8.90;99.90
40077;DHT22;25777;47.824;18.982;2023-11-21T12:45:26;8.90;99.90
40077;DHT22;25777;47.824;18.982;2023-11-21T12:47:56;8.90;99.90
40077;DHT22;25777;47.824;18.982;2023-11-21T12:50:26;8.90;99.90
40077;DHT22;25777;47.824;18.982;2023-11-21T12:52:58;8.90;99.90
40077;DHT22;25777;47.824;18.982;2023-11-21T12:55:24;8.90;99.90
40077;DHT22;25777;47.824;18.982;2023-11-21T12:57:54;8.90;99.90
40077;DHT22;25777;47.824;18.982;2023-11-21T13:00:29;8.90;99.90
40077;DHT22;25777;47.824;18.982;2023-11-21T13:02:58;8.90;99.90
40077;DHT22;25777;47.824;18.982;2023-11-21T13:05:31;8.90;99.90
40077;DHT22;25777;47.824;18.982;2023-11-21T13:08:01;8.90;99.90
40077;DHT22;25777;47.824;18.982;2023-11-21T13:10:34;8.90;99.90
40077;DHT22;25777;47.824;18.982;2023-11-21T13:13:06;8.80;99.90
40077;DHT22;25777;47.824;18.982;2023-11-21T13:15:38;8.80;99.90
40077;DHT22;25777;47.824;18.982;2023-11-21T13:18:04;8.80;99.90
40077;DHT22;25777;47.824;18.982;2023-11-21T13:20:30;8.80;99.90
40077;DHT22;25777;47.824;18.982;2023-11-21T13:22:57;8.70;99.90
40077;DHT22;25777;47.824;18.982;2023-11-21T13:25:28;8.70;99.90
40077;DHT22;25777;47.824;18.982;2023-11-21T13:27:57;8.70;99.90
40077;DHT22;25777;47.824;18.982;2023-11-21T13:30:27;8.60;99.90
40077;DHT22;25777;47.824;18.982;2023-11-21T13:33:00;8.60;99.90
40077;DHT22;25777;47.824;18.982;2023-11-21T13:35:36;8.60;99.90
40077;DHT22;25777;47.824;18.982;2023-11-21T13:38:16;8.60;99.90
40077;DHT22;25777;47.824;18.982;2023-11-21T13:40:50;8.50;99.90
40077;DHT22;25777;47.824;18.982;2023-11-21T13:43:20;8.50;99.90
40077;DHT22;25777;47.824;18.982;2023-11-21T13:45:48;8.40;99.90
40077;DHT22;25777;47.824;18.982;2023-11-21T13:48:25;8.40;99.90
40077;DHT22;25777;47.824;18.982;2023-11-21T13:50:57;8.40;99.90
40077;DHT22;25777;47.824;18.982;2023-11-21T13:53:49;8.40;99.90
40077;DHT22;25777;47.824;18.982;2023-11-21T13:56:19;8.40;99.90
40077;DHT22;25777;47.824;18.982;2023-11-21T13:58:49;8.30;99.90
40077;DHT22;25777;47.824;18.982;2023-11-21T14:01:21;8.30;99.90
40077;DHT22;25777;47.824;18.982;2023-11-21T14:03:56;8.30;99.90
40077;DHT22;25777;47.824;18.982;2023-11-21T14:06:50;8.20;99.90
40077;DHT22;25777;47.824;18.982;2023-11-21T14:09:20;8.10;99.90
40077;DHT22;25777;47.824;18.982;2023-11-21T14:11:59;8.10;99.90
40077;DHT22;25777;47.824;18.982;2023-11-21T14:14:27;8.00;99.90
40077;DHT22;25777;47.824;18.982;2023-11-21T14:16:56;7.90;99.90
40077;DHT22;25777;47.824;18.982;2023-11-21T14:19:23;7.80;99.90
40077;DHT22;25777;47.824;18.982;2023-11-21T14:21:53;7.70;99.90
40077;DHT22;25777;47.824;18.982;2023-11-21T14:24:19;7.80;99.90
40077;DHT22;25777;47.824;18.982;2023-11-21T14:26:46;7.80;99.90
40077;DHT22;25777;47.824;18.982;2023-11-21T14:29:15;7.70;99.90
40077;DHT22;25777;47.824;18.982;2023-11-21T14:31:45;7.70;99.90
40077;DHT22;25777;47.824;18.982;2023-11-21T14:34:11;7.60;99.90
40077;DHT22;25777;47.824;18.982;2023-11-21T14:36:39;7.60;99.90
40077;DHT22;25777;47.824;18.982;2023-11-21T14:39:06;7.60;99.90
40077;DHT22;25777;47.824;18.982;2023-11-21T14:41:35;7.50;99.90
40077;DHT22;25777;47.824;18.982;2023-11-21T14:44:01;7.40;99.90
40077;DHT22;25777;47.824;18.982;2023-11-21T14:46:30;7.40;99.90
40077;DHT22;25777;47.824;18.982;2023-11-21T14:48:56;7.30;99.90
40077;DHT22;25777;47.824;18.982;2023-11-21T14:51:28;7.30;99.90
40077;DHT22;25777;47.824;18.982;2023-11-21T14:53:58;7.20;99.90
40077;DHT22;25777;47.824;18.982;2023-11-21T14:56:32;7.20;99.90
40077;DHT22;25777;47.824;18.982;2023-11-21T14:59:03;7.10;99.90
40077;DHT22;25777;47.824;18.982;2023-11-21T15:01:38;6.90;99.90
40077;DHT22;25777;47.824;18.982;2023-11-21T15:04:21;6.80;99.90
40077;DHT22;25777;47.824;18.982;2023-11-21T15:07:04;6.80;99.90
40077;DHT22;25777;47.824;18.982;2023-11-21T15:09:30;6.80;99.90
40077;DHT22;25777;47.824;18.982;2023-11-21T15:12:02;6.80;99.90
40077;DHT22;25777;47.824;18.982;2023-11-21T15:14:51;6.70;99.90
40077;DHT22;25777;47.824;18.982;2023-11-21T15:17:23;6.60;99.90
40077;DHT22;25777;47.824;18.982;2023-11-21T15:19:52;6.50;99.90
40077;DHT22;25777;47.824;18.982;2023-11-21T15:22:19;6.40;99.90
40077;DHT22;25777;47.824;18.982;2023-11-21T15:24:45;6.50;99.90
40077;DHT22;25777;47.824;18.982;2023-11-21T15:27:16;6.50;99.90
40077;DHT22;25777;47.824;18.982;2023-11-21T15:29:43;6.20;99.90
40077;DHT22;25777;47.824;18.982;2023-11-21T15:32:09;6.00;99.90
40077;DHT22;25777;47.824;18.982;2023-11-21T15:34:36;5.90;99.90
40077;DHT22;25777;47.824;18.982;2023-11-21T15:37:03;5.80;99.90
40077;DHT22;25777;47.824;18.982;2023-11-21T15:39:29;5.60;99.90
40077;DHT22;25777;47.824;18.982;2023-11-21T15:41:57;5.60;99.90
40077;DHT22;25777;47.824;18.982;2023-11-21T15:44:24;5.60;99.90
40077;DHT22;25777;47.824;18.982;2023-11-21T15:46:55;5.60;99.90
40077;DHT22;25777;47.824;18.982;2023-11-21T15:49:21;5.40;99.90
40077;DHT22;25777;47.824;18.982;2023-11-21T15:51:48;5.40;99.90